Bishopthorpe, United Kingdom
Current Conditions -  °F | °C
As of 12:50 AM on Saturday 20 Dec 2014 (Local Time) from EGXU Reporting Station
Few Clouds Few Clouds  
Wind Chill: 36°   Ceiling: Unl
Heat Index: 45°   Visibility: 6mi
Dew Point: 45°   Wind: 21mph
Humidity: 100%   Direction: 270°W
Pressure: 29.97"   Gusts: NA
Location:  53.92°N, 1.1°W
Report Text: EGXU 200050Z AUTO 27018KT 9999 // FEW027/// 07/07 Q1015
Loading
Personal Weather Stations






























Interactive Weather Map New forecast layout! Learn more

10-Day Weather Forecast

Advertisements
Track Severe Weather on mobile